createdAt,value
2019-03-10T00:00:21.866Z,3.83
2019-03-10T00:03:07.556Z,4.07
2019-03-10T00:05:58.551Z,3.87
2019-03-10T00:12:24.006Z,4.37
2019-03-10T00:18:43.531Z,3.60
2019-03-10T00:24:28.580Z,3.73
2019-03-10T00:27:17.312Z,3.77
2019-03-10T00:29:56.983Z,3.70
2019-03-10T00:32:41.243Z,4.30
2019-03-10T00:35:23.568Z,4.17
2019-03-10T00:38:03.461Z,4.13
2019-03-10T00:41:07.369Z,4.07
2019-03-10T00:44:13.325Z,4.03
2019-03-10T00:47:46.976Z,4.50
2019-03-10T00:51:11.975Z,4.03
2019-03-10T00:54:01.514Z,4.43
2019-03-10T00:56:48.976Z,3.93
2019-03-10T00:59:36.588Z,3.90
2019-03-10T01:02:19.379Z,4.10
2019-03-10T01:12:04.492Z,4.50
2019-03-10T01:14:49.561Z,4.40
2019-03-10T01:21:21.549Z,4.27
2019-03-10T01:24:03.555Z,4.53
2019-03-10T01:26:44.526Z,4.00
2019-03-10T01:29:27.749Z,3.97
2019-03-10T01:32:35.544Z,4.30
2019-03-10T01:35:27.372Z,4.07
2019-03-10T01:38:09.574Z,4.50
2019-03-10T01:44:06.982Z,4.50
2019-03-10T01:46:48.537Z,5.30
2019-03-10T01:49:29.510Z,4.97
2019-03-10T01:52:20.311Z,5.20
2019-03-10T01:55:02.750Z,4.83
2019-03-10T01:57:43.510Z,5.30
2019-03-10T02:00:28.569Z,5.97
2019-03-10T02:03:13.634Z,6.47
2019-03-10T02:05:51.588Z,6.23
2019-03-10T02:08:32.499Z,6.93
2019-03-10T02:11:10.804Z,6.27
2019-03-10T02:13:48.503Z,7.10
2019-03-10T02:16:28.457Z,6.50
2019-03-10T02:19:16.186Z,7.30
2019-03-10T02:21:55.522Z,6.40
2019-03-10T02:24:35.872Z,6.80
2019-03-10T02:27:13.371Z,6.47
2019-03-10T02:29:53.313Z,5.57
2019-03-10T02:32:32.442Z,5.50
2019-03-10T02:35:12.185Z,5.57
2019-03-10T02:37:53.576Z,4.83
2019-03-10T02:40:30.970Z,5.07
2019-03-10T02:43:10.607Z,5.03
2019-03-10T02:45:48.503Z,5.23
2019-03-10T02:48:26.196Z,5.37
2019-03-10T02:51:13.531Z,5.23
2019-03-10T02:53:50.403Z,5.17
2019-03-10T02:56:29.527Z,5.20
2019-03-10T02:59:10.012Z,4.73
2019-03-10T03:01:52.494Z,5.00
2019-03-10T03:04:34.491Z,5.17
2019-03-10T03:07:13.825Z,4.33
2019-03-10T03:09:49.471Z,4.63
2019-03-10T03:12:27.005Z,4.40
2019-03-10T03:15:05.755Z,4.37
2019-03-10T03:17:42.574Z,5.13
2019-03-10T03:20:17.595Z,4.40
2019-03-10T03:22:56.525Z,4.70
2019-03-10T03:25:33.019Z,5.37
2019-03-10T03:28:12.526Z,4.53
2019-03-10T03:30:53.564Z,4.50
2019-03-10T03:33:32.633Z,4.90
2019-03-10T03:36:18.015Z,4.60
2019-03-10T03:39:02.559Z,5.20
2019-03-10T03:41:42.713Z,4.40
2019-03-10T03:44:20.634Z,4.80
2019-03-10T03:47:03.883Z,4.53
2019-03-10T03:49:51.871Z,4.57
2019-03-10T03:52:33.375Z,4.63
2019-03-10T03:55:13.725Z,4.43
2019-03-10T03:57:54.501Z,4.00
2019-03-10T04:00:41.605Z,4.60
2019-03-10T04:03:22.023Z,3.87
2019-03-10T04:06:00.483Z,3.43
2019-03-10T04:08:41.861Z,3.70
2019-03-10T04:11:20.377Z,3.87
2019-03-10T04:13:59.503Z,3.40
2019-03-10T04:16:38.641Z,3.63
2019-03-10T04:19:17.848Z,7.03
2019-03-10T04:21:51.573Z,4.37
2019-03-10T04:24:29.016Z,4.80
2019-03-10T04:27:13.028Z,3.97
2019-03-10T04:30:05.752Z,4.27
2019-03-10T04:32:42.833Z,4.20
2019-03-10T04:35:21.618Z,3.83
2019-03-10T04:37:58.837Z,2.30
2019-03-10T04:40:34.690Z,1.40
2019-03-10T04:43:14.641Z,0.83
2019-03-10T04:45:53.020Z,0.93
2019-03-10T04:48:29.423Z,0.80
2019-03-10T04:51:06.913Z,1.10
2019-03-10T04:53:42.011Z,0.90
2019-03-10T04:56:32.747Z,0.87
2019-03-10T04:59:09.035Z,0.90
2019-03-10T05:01:51.619Z,1.10
2019-03-10T05:04:31.777Z,0.90
2019-03-10T05:07:20.326Z,0.90
2019-03-10T05:10:01.017Z,1.10
2019-03-10T05:12:37.560Z,0.87
2019-03-10T05:15:18.549Z,0.70
2019-03-10T05:18:00.530Z,0.90
2019-03-10T05:20:43.752Z,1.00
2019-03-10T05:23:59.541Z,0.90
2019-03-10T05:26:52.413Z,0.80
2019-03-10T05:29:38.144Z,0.70
2019-03-10T05:32:23.759Z,0.90
2019-03-10T05:35:03.710Z,0.80
2019-03-10T05:37:41.660Z,0.63
2019-03-10T05:40:24.439Z,0.93
2019-03-10T05:49:35.554Z,1.00
2019-03-10T05:55:56.467Z,0.70
2019-03-10T06:02:21.056Z,1.10
2019-03-10T06:08:43.462Z,0.73
2019-03-10T06:11:28.725Z,0.90
2019-03-10T06:17:40.437Z,0.70
2019-03-10T06:20:21.607Z,0.60
2019-03-10T06:26:48.690Z,0.67
2019-03-10T06:33:17.400Z,0.57
2019-03-10T06:35:58.585Z,0.70
2019-03-10T06:38:38.730Z,0.80
2019-03-10T06:41:17.649Z,0.60
2019-03-10T06:43:57.605Z,0.60
2019-03-10T06:46:39.394Z,0.60
2019-03-10T06:49:24.662Z,0.50
2019-03-10T06:52:00.529Z,0.60
2019-03-10T06:54:47.030Z,0.70
2019-03-10T06:57:26.960Z,0.57
2019-03-10T07:00:06.707Z,0.70
2019-03-10T07:02:46.141Z,0.80
2019-03-10T07:05:32.756Z,0.70
2019-03-10T07:08:11.691Z,0.50
2019-03-10T07:10:56.964Z,0.50
2019-03-10T07:13:39.565Z,0.40
2019-03-10T07:16:20.144Z,0.60
2019-03-10T07:19:00.891Z,0.60
2019-03-10T07:21:51.693Z,0.40
2019-03-10T07:24:31.031Z,0.50
2019-03-10T07:27:09.547Z,0.50
2019-03-10T07:29:59.736Z,0.60
2019-03-10T07:36:30.078Z,0.57
2019-03-10T07:39:29.492Z,0.60
2019-03-10T07:46:13.850Z,0.50
2019-03-10T07:52:26.470Z,0.70
2019-03-10T07:55:25.160Z,0.60
2019-03-10T07:58:31.882Z,0.70
2019-03-10T08:01:29.008Z,0.43
2019-03-10T08:04:27.804Z,0.77
2019-03-10T08:07:40.720Z,0.67
2019-03-10T08:10:42.804Z,0.60
2019-03-10T08:17:19.688Z,0.57
2019-03-10T08:20:21.770Z,0.57
2019-03-10T08:26:49.666Z,0.57
2019-03-10T08:29:45.576Z,0.60
2019-03-10T08:36:27.802Z,0.70
2019-03-10T08:39:22.194Z,0.50
2019-03-10T08:42:20.265Z,0.50
2019-03-10T08:48:31.764Z,0.63
2019-03-10T08:55:04.775Z,0.60
2019-03-10T09:01:46.184Z,0.60
2019-03-10T09:04:45.792Z,0.63
2019-03-10T09:07:42.204Z,0.70
2019-03-10T09:10:37.025Z,0.53
2019-03-10T09:13:28.047Z,0.60
2019-03-10T09:16:20.680Z,0.70
2019-03-10T09:19:14.763Z,0.50
2019-03-10T09:22:22.763Z,0.70
2019-03-10T09:25:12.763Z,0.67
2019-03-10T09:28:12.872Z,0.60
2019-03-10T09:31:39.410Z,0.70
2019-03-10T09:43:15.219Z,0.50
2019-03-10T09:53:18.666Z,0.70
2019-03-10T09:56:15.058Z,0.60
2019-03-10T10:03:02.038Z,0.83
2019-03-10T10:06:23.763Z,0.50
2019-03-10T10:09:23.781Z,0.60
2019-03-10T10:12:13.495Z,1.00
2019-03-10T10:14:58.834Z,0.80
2019-03-10T10:17:54.582Z,0.70
2019-03-10T10:21:14.847Z,1.00
2019-03-10T10:24:13.844Z,0.77
2019-03-10T10:30:52.837Z,0.50
2019-03-10T10:33:51.788Z,1.03
2019-03-10T10:36:45.349Z,0.60
2019-03-10T10:43:06.795Z,0.60
2019-03-10T10:49:04.402Z,0.73
2019-03-10T10:52:02.168Z,0.60
2019-03-10T10:54:50.292Z,0.47
2019-03-10T10:57:49.569Z,0.60
2019-03-10T11:01:10.075Z,0.73
2019-03-10T11:04:09.649Z,0.50
2019-03-10T11:10:54.501Z,0.50
2019-03-10T11:14:02.487Z,0.67
2019-03-10T11:17:15.093Z,0.50
2019-03-10T11:20:14.621Z,0.60
2019-03-10T11:23:28.670Z,0.60
2019-03-10T11:26:23.266Z,0.60
2019-03-10T11:29:32.298Z,0.50
2019-03-10T11:32:33.645Z,0.87
2019-03-10T11:35:34.161Z,0.50
2019-03-10T11:38:29.923Z,0.57
2019-03-10T11:41:33.746Z,0.60
2019-03-10T11:44:34.661Z,0.63
2019-03-10T11:51:05.744Z,0.70
2019-03-10T11:54:03.154Z,0.50
2019-03-10T11:57:05.668Z,0.50
2019-03-10T12:10:01.620Z,0.70
2019-03-10T12:16:04.112Z,0.60
2019-03-10T12:18:51.227Z,0.70
2019-03-10T12:25:03.149Z,0.50
2019-03-10T12:31:25.316Z,0.70
2019-03-10T12:37:39.275Z,0.70
2019-03-10T12:43:42.175Z,0.60
2019-03-10T12:49:52.038Z,0.70
2019-03-10T12:52:35.267Z,0.50
2019-03-10T12:55:18.490Z,0.63
2019-03-10T12:58:03.380Z,0.70
2019-03-10T13:01:06.437Z,0.57
2019-03-10T13:07:20.206Z,0.77
2019-03-10T13:10:08.393Z,0.60
2019-03-10T13:13:02.043Z,0.60
2019-03-10T13:15:58.146Z,0.60
2019-03-10T13:18:36.260Z,1.03
2019-03-10T13:21:26.144Z,0.50
2019-03-10T13:24:22.363Z,0.60
2019-03-10T13:27:05.191Z,0.50
2019-03-10T13:29:51.282Z,0.60
2019-03-10T13:35:59.515Z,0.53
2019-03-10T13:38:51.422Z,0.60
2019-03-10T13:41:30.306Z,0.87
2019-03-10T13:44:15.996Z,0.63
2019-03-10T13:46:57.945Z,0.80
2019-03-10T13:53:36.278Z,0.73
2019-03-10T13:56:33.443Z,0.60
2019-03-10T13:59:11.324Z,0.60
2019-03-10T14:01:48.725Z,0.60
2019-03-10T14:04:40.845Z,0.60
2019-03-10T14:07:29.621Z,0.50
2019-03-10T14:10:13.645Z,0.40
2019-03-10T14:13:04.813Z,0.50
2019-03-10T14:15:49.117Z,0.60
2019-03-10T14:18:32.349Z,0.50
2019-03-10T14:21:10.723Z,0.50
2019-03-10T14:27:34.436Z,0.57
2019-03-10T14:30:13.203Z,0.60
2019-03-10T14:32:58.312Z,0.40
2019-03-10T14:35:36.971Z,0.50
2019-03-10T14:38:24.364Z,0.50
2019-03-10T14:41:16.068Z,0.70
2019-03-10T14:44:21.244Z,0.50
2019-03-10T14:50:55.483Z,0.63
2019-03-10T14:53:38.315Z,0.47
2019-03-10T14:56:18.267Z,0.50
2019-03-10T14:58:56.350Z,0.50
2019-03-10T15:01:45.303Z,0.60
2019-03-10T15:04:24.655Z,0.53
2019-03-10T15:07:03.764Z,0.60
2019-03-10T15:09:49.267Z,0.60
2019-03-10T15:12:38.674Z,0.73
2019-03-10T15:15:22.303Z,0.90
2019-03-10T15:17:55.641Z,1.33
2019-03-10T15:21:04.474Z,1.00
2019-03-10T15:27:42.212Z,0.80
2019-03-10T15:30:50.631Z,0.80
2019-03-10T15:44:14.912Z,0.70
2019-03-10T15:50:16.342Z,1.03
2019-03-10T15:52:59.678Z,1.00
2019-03-10T15:59:22.493Z,0.73
2019-03-10T16:05:27.844Z,0.80
2019-03-10T16:11:53.969Z,1.00
2019-03-10T16:14:34.414Z,1.00
2019-03-10T16:17:36.475Z,0.80
2019-03-10T16:20:18.880Z,1.00
2019-03-10T16:23:10.910Z,0.70
2019-03-10T16:26:25.059Z,1.07
2019-03-10T16:32:21.779Z,1.20
2019-03-10T16:38:45.586Z,1.00
2019-03-10T16:41:44.623Z,1.43
2019-03-10T16:44:29.360Z,1.27
2019-03-10T16:54:22.370Z,1.13
2019-03-10T17:06:51.115Z,1.20
2019-03-10T17:09:28.541Z,1.20
2019-03-10T17:12:03.239Z,1.17
2019-03-10T17:14:40.312Z,1.33
2019-03-10T17:20:18.027Z,1.57
2019-03-10T17:26:28.557Z,1.60
2019-03-10T17:29:05.219Z,1.50
2019-03-10T17:31:51.306Z,2.00
2019-03-10T17:34:27.341Z,1.70
2019-03-10T17:37:03.706Z,1.20
2019-03-10T17:39:52.713Z,1.53
2019-03-10T17:42:39.469Z,1.83
2019-03-10T17:45:30.284Z,1.90
2019-03-10T17:48:07.565Z,1.53
2019-03-10T17:50:44.674Z,1.80
2019-03-10T17:53:24.594Z,1.77
2019-03-10T17:56:00.447Z,1.67
2019-03-10T17:58:43.317Z,1.47
2019-03-10T18:01:19.516Z,1.33
2019-03-10T18:03:56.399Z,1.70
2019-03-10T18:06:43.084Z,1.63
2019-03-10T18:09:37.333Z,1.70
2019-03-10T18:12:20.202Z,1.90
2019-03-10T18:18:34.352Z,1.77
2019-03-10T18:21:14.126Z,1.53
2019-03-10T18:23:49.149Z,2.10
2019-03-10T18:30:04.690Z,1.67
2019-03-10T18:36:08.277Z,2.03
2019-03-10T18:42:34.066Z,2.10
2019-03-10T18:45:30.655Z,2.00
2019-03-10T18:48:11.433Z,1.60
2019-03-10T19:00:56.574Z,1.93
2019-03-10T19:03:37.345Z,1.60
2019-03-10T19:09:58.722Z,1.73
2019-03-10T19:12:40.773Z,1.50
2019-03-10T19:22:10.203Z,1.73
2019-03-10T19:28:38.507Z,1.70
2019-03-10T19:31:14.360Z,1.93
2019-03-10T19:33:56.355Z,1.70
2019-03-10T19:36:36.339Z,2.00
2019-03-10T19:39:19.954Z,1.80
2019-03-10T19:42:03.739Z,1.97
2019-03-10T19:44:52.331Z,2.50
2019-03-10T19:47:33.112Z,1.70
2019-03-10T19:50:11.620Z,2.03
2019-03-10T19:52:56.081Z,1.67
2019-03-10T19:59:22.117Z,2.00
2019-03-10T20:02:03.425Z,1.73
2019-03-10T20:04:51.043Z,1.90
2019-03-10T20:07:30.266Z,2.10
2019-03-10T20:10:16.668Z,1.90
2019-03-10T20:13:01.931Z,1.63
2019-03-10T20:15:46.228Z,2.10
2019-03-10T20:18:28.246Z,1.70
2019-03-10T20:21:09.267Z,1.90
2019-03-10T20:23:49.003Z,1.80
2019-03-10T20:26:39.081Z,1.57
2019-03-10T20:29:16.442Z,2.03
2019-03-10T20:32:00.413Z,1.83
2019-03-10T20:38:10.692Z,1.80
2019-03-10T20:44:06.533Z,1.63
2019-03-10T20:50:25.134Z,2.50
2019-03-10T20:56:31.494Z,1.70
2019-03-10T21:02:59.188Z,2.13
2019-03-10T21:09:34.446Z,2.00
2019-03-10T21:12:12.162Z,2.10
2019-03-10T21:14:57.205Z,2.53
2019-03-10T21:18:03.984Z,1.90
2019-03-10T21:20:48.263Z,1.73
2019-03-10T21:23:36.175Z,1.83
2019-03-10T21:26:23.308Z,1.63
2019-03-10T21:29:18.191Z,1.63
2019-03-10T21:31:59.680Z,1.60
2019-03-10T21:38:25.633Z,1.83
2019-03-10T21:41:23.495Z,2.00
2019-03-10T21:43:58.256Z,2.23
2019-03-10T21:46:49.803Z,2.10
2019-03-10T21:49:31.223Z,1.47
2019-03-10T21:52:13.674Z,1.80
2019-03-10T21:54:52.688Z,1.67
2019-03-10T22:01:14.917Z,2.17
2019-03-10T22:07:47.727Z,1.57
2019-03-10T22:10:32.169Z,2.10
2019-03-10T22:23:07.266Z,2.17
2019-03-10T22:29:27.986Z,1.80
2019-03-10T22:32:07.327Z,2.50
2019-03-10T22:38:17.205Z,2.13
2019-03-10T22:44:32.384Z,1.87
2019-03-10T22:47:08.274Z,2.00
2019-03-10T22:49:50.329Z,2.13
2019-03-10T22:52:33.253Z,1.83
2019-03-10T22:55:09.315Z,2.37
2019-03-10T22:57:58.275Z,2.07
2019-03-10T23:01:08.533Z,2.50
2019-03-10T23:07:31.303Z,2.13
2019-03-10T23:10:11.718Z,2.67
2019-03-10T23:15:54.300Z,1.77
2019-03-10T23:22:00.274Z,2.27
2019-03-10T23:28:09.123Z,2.17
2019-03-10T23:34:15.743Z,2.37
2019-03-10T23:40:26.610Z,2.50
2019-03-10T23:43:04.358Z,2.20
2019-03-10T23:45:41.386Z,2.33
2019-03-10T23:48:27.788Z,2.30
2019-03-10T23:51:11.822Z,1.60
2019-03-10T23:53:48.182Z,2.17
2019-03-10T23:56:25.474Z,2.30
2019-03-10T23:59:02.348Z,2.20
